createdAt,value
2022-08-10T00:00:16.572Z,61.57
2022-08-10T00:03:05.698Z,61.57
2022-08-10T00:05:53.126Z,62.06
2022-08-10T00:08:40.421Z,62.17
2022-08-10T00:11:07.240Z,62.93
2022-08-10T00:13:55.185Z,62.74
2022-08-10T00:16:21.811Z,62.32
2022-08-10T00:18:48.431Z,62.33
2022-08-10T00:21:14.860Z,62.23
2022-08-10T00:23:50.019Z,62.61
2022-08-10T00:27:51.707Z,62.35
2022-08-10T00:29:40.607Z,62.67
2022-08-10T00:32:16.711Z,63.15
2022-08-10T00:35:05.703Z,63.31
2022-08-10T00:37:57.937Z,62.85
2022-08-10T00:46:04.376Z,65.12
2022-08-10T00:49:01.709Z,64.55
2022-08-10T00:51:40.221Z,66.49
2022-08-10T00:54:25.423Z,67.63
2022-08-10T00:57:15.649Z,68.50
2022-08-10T00:59:58.936Z,67.93
2022-08-10T01:02:32.152Z,68.44
2022-08-10T01:05:03.442Z,69.06
2022-08-10T01:07:49.534Z,68.79
2022-08-10T01:11:02.469Z,69.16
2022-08-10T01:16:53.285Z,69.51
2022-08-10T01:20:30.217Z,69.57
2022-08-10T01:23:42.827Z,69.49
2022-08-10T01:29:59.949Z,70.08
2022-08-10T01:33:02.555Z,70.39
2022-08-10T01:36:08.643Z,71.30
2022-08-10T01:38:51.142Z,70.97
2022-08-10T01:41:46.323Z,71.39
2022-08-10T01:44:46.684Z,71.78
2022-08-10T01:47:36.868Z,71.99
2022-08-10T01:50:26.085Z,72.03
2022-08-10T01:52:58.752Z,72.59
2022-08-10T01:55:26.987Z,74.31
2022-08-10T01:57:55.110Z,73.59
2022-08-10T02:00:25.309Z,73.70
2022-08-10T02:03:05.990Z,73.74
2022-08-10T02:06:06.222Z,73.41
2022-08-10T02:08:34.995Z,74.72
2022-08-10T02:13:54.482Z,74.23
2022-08-10T02:16:23.540Z,74.04
2022-08-10T02:18:57.068Z,74.54
2022-08-10T02:21:38.004Z,74.84
2022-08-10T02:24:33.390Z,74.97
2022-08-10T02:27:16.139Z,74.95
2022-08-10T02:30:06.219Z,75.09
2022-08-10T02:32:52.796Z,75.72
2022-08-10T02:35:53.732Z,76.20
2022-08-10T02:38:58.356Z,76.79
2022-08-10T02:45:14.975Z,76.43
2022-08-10T02:45:31.178Z,76.49
2022-08-10T02:48:02.799Z,76.60
2022-08-10T02:50:49.522Z,77.27
2022-08-10T02:53:54.477Z,77.61
2022-08-10T02:56:57.251Z,76.77
2022-08-10T02:59:43.258Z,76.69
2022-08-10T03:02:25.015Z,76.89
2022-08-10T03:04:58.128Z,76.56
2022-08-10T03:07:42.479Z,77.19
2022-08-10T03:10:25.831Z,77.49
2022-08-10T03:13:11.312Z,77.66
2022-08-10T03:15:41.367Z,77.86
2022-08-10T03:18:09.292Z,78.22
2022-08-10T03:21:11.913Z,79.12
2022-08-10T03:23:52.719Z,78.80
2022-08-10T03:26:24.646Z,79.35
2022-08-10T03:28:56.804Z,79.16
2022-08-10T03:34:57.826Z,79.37
2022-08-10T03:37:28.820Z,79.33
2022-08-10T03:39:58.507Z,79.14
2022-08-10T03:42:27.799Z,79.60
2022-08-10T03:44:56.460Z,79.11
2022-08-10T03:47:24.880Z,79.25
2022-08-10T03:49:53.791Z,79.70
2022-08-10T03:52:20.932Z,80.46
2022-08-10T03:54:55.122Z,80.08
2022-08-10T03:57:22.725Z,80.35
2022-08-10T03:59:52.988Z,80.68
2022-08-10T04:02:42.254Z,80.75
2022-08-10T04:05:07.870Z,81.67
2022-08-10T04:07:36.656Z,82.54
2022-08-10T04:10:13.065Z,83.62
2022-08-10T04:12:40.670Z,84.02
2022-08-10T04:15:08.084Z,84.09
2022-08-10T04:18:04.162Z,84.17
2022-08-10T04:20:34.370Z,85.74
2022-08-10T04:23:23.157Z,86.23
2022-08-10T04:25:52.035Z,85.03
2022-08-10T04:28:19.046Z,83.60
2022-08-10T04:30:51.776Z,82.26
2022-08-10T04:33:22.668Z,80.12
2022-08-10T04:35:50.314Z,79.25
2022-08-10T04:38:18.156Z,76.92
2022-08-10T04:40:46.149Z,75.15
2022-08-10T04:43:14.217Z,73.22
2022-08-10T04:45:48.931Z,70.22
2022-08-10T04:48:40.639Z,69.23
2022-08-10T04:51:18.984Z,68.65
2022-08-10T04:54:03.284Z,69.15
2022-08-10T04:56:37.759Z,68.77
2022-08-10T04:59:06.382Z,68.89
2022-08-10T05:02:22.610Z,68.14
2022-08-10T05:04:37.516Z,66.12
2022-08-10T05:07:07.226Z,64.56
2022-08-10T05:09:33.657Z,63.84
2022-08-10T05:12:20.147Z,62.30
2022-08-10T05:14:46.666Z,60.18
2022-08-10T05:17:13.116Z,59.52
2022-08-10T05:20:05.157Z,59.77
2022-08-10T05:22:25.892Z,57.52
2022-08-10T05:24:52.433Z,57.53
2022-08-10T05:27:20.945Z,56.24
2022-08-10T05:30:01.684Z,55.53
2022-08-10T05:32:29.548Z,54.94
2022-08-10T05:34:55.998Z,55.09
2022-08-10T05:38:10.339Z,54.14
2022-08-10T05:40:10.770Z,53.95
2022-08-10T05:42:41.787Z,54.67
2022-08-10T05:45:21.265Z,52.22
2022-08-10T05:48:54.750Z,53.89
2022-08-10T05:50:35.286Z,55.07
2022-08-10T05:53:59.643Z,54.37
2022-08-10T05:55:48.440Z,53.57
2022-08-10T05:58:14.940Z,52.90
2022-08-10T06:00:49.891Z,51.00
2022-08-10T06:03:23.898Z,50.57
2022-08-10T06:05:53.721Z,49.56
2022-08-10T06:08:23.949Z,48.99
2022-08-10T06:12:23.409Z,49.74
2022-08-10T06:14:13.240Z,51.97
2022-08-10T06:16:45.818Z,53.67
2022-08-10T06:19:15.227Z,54.37
2022-08-10T06:22:00.448Z,53.38
2022-08-10T06:24:30.635Z,54.10
2022-08-10T06:26:57.917Z,54.42
2022-08-10T06:29:26.111Z,54.68
2022-08-10T06:31:53.484Z,53.87
2022-08-10T06:34:29.139Z,54.79
2022-08-10T06:36:59.264Z,54.95
2022-08-10T06:39:34.005Z,54.48
2022-08-10T06:42:20.363Z,54.13
2022-08-10T06:45:04.756Z,53.02
2022-08-10T06:47:39.114Z,52.30
2022-08-10T06:50:17.439Z,52.20
2022-08-10T06:53:05.369Z,50.47
2022-08-10T06:55:49.946Z,48.53
2022-08-10T06:58:26.835Z,47.48
2022-08-10T07:00:55.500Z,48.10
2022-08-10T07:03:26.639Z,48.10
2022-08-10T07:05:54.568Z,47.82
2022-08-10T07:08:23.254Z,47.75
2022-08-10T07:10:51.633Z,49.12
2022-08-10T07:14:15.317Z,48.57
2022-08-10T07:16:11.909Z,49.31
2022-08-10T07:18:39.754Z,48.49
2022-08-10T07:21:11.320Z,47.75
2022-08-10T07:23:57.604Z,48.07
2022-08-10T07:26:28.801Z,48.01
2022-08-10T07:28:56.329Z,48.36
2022-08-10T07:31:29.656Z,46.92
2022-08-10T07:34:14.283Z,46.61
2022-08-10T07:37:00.107Z,46.23
2022-08-10T07:40:02.351Z,45.90
2022-08-10T07:42:20.111Z,46.04
2022-08-10T07:44:47.901Z,47.42
2022-08-10T07:47:18.427Z,45.11
2022-08-10T07:50:08.579Z,44.83
2022-08-10T07:52:38.072Z,44.81
2022-08-10T07:55:06.690Z,44.25
2022-08-10T07:57:40.016Z,44.13
2022-08-10T08:00:10.690Z,45.04
2022-08-10T08:02:44.183Z,45.12
2022-08-10T08:05:13.595Z,44.72
2022-08-10T08:08:02.411Z,45.31
2022-08-10T08:10:31.226Z,43.66
2022-08-10T08:12:58.894Z,45.06
2022-08-10T08:16:18.225Z,44.57
2022-08-10T08:18:23.012Z,44.50
2022-08-10T08:20:55.348Z,43.54
2022-08-10T08:24:04.979Z,44.13
2022-08-10T08:26:16.741Z,43.95
2022-08-10T08:28:45.752Z,44.29
2022-08-10T08:31:17.913Z,43.11
2022-08-10T08:33:46.940Z,43.34
2022-08-10T08:36:16.888Z,41.98
2022-08-10T08:38:47.175Z,42.32
2022-08-10T08:41:22.654Z,41.84
2022-08-10T08:44:04.704Z,42.19
2022-08-10T08:47:01.884Z,41.32
2022-08-10T08:50:09.641Z,40.97
2022-08-10T08:52:53.750Z,39.82
2022-08-10T08:56:03.091Z,39.86
2022-08-10T08:58:38.632Z,40.31
2022-08-10T09:01:23.580Z,39.46
2022-08-10T09:04:28.581Z,39.70
2022-08-10T09:08:01.153Z,39.12
2022-08-10T09:10:37.056Z,38.62
2022-08-10T09:13:16.781Z,38.88
2022-08-10T09:16:08.251Z,38.55
2022-08-10T09:19:06.487Z,38.11
2022-08-10T09:21:58.750Z,37.15
2022-08-10T09:24:46.214Z,36.96
2022-08-10T09:27:50.105Z,36.89
2022-08-10T09:30:38.146Z,37.40
2022-08-10T09:36:23.870Z,36.55
2022-08-10T09:36:32.455Z,36.47
2022-08-10T09:39:07.838Z,36.39
2022-08-10T09:42:14.464Z,37.01
2022-08-10T09:45:03.139Z,35.63
2022-08-10T09:48:01.707Z,35.66
2022-08-10T09:54:06.063Z,35.06
2022-08-10T09:56:49.533Z,35.92
2022-08-10T10:00:00.002Z,36.23
2022-08-10T10:02:32.761Z,35.20
2022-08-10T10:05:29.739Z,36.49
2022-08-10T10:08:14.493Z,34.72
2022-08-10T10:11:19.840Z,36.25
2022-08-10T10:14:12.555Z,34.75
2022-08-10T10:16:59.655Z,35.04
2022-08-10T10:19:55.353Z,34.13
2022-08-10T10:22:50.850Z,34.93
2022-08-10T10:25:49.836Z,35.24
2022-08-10T10:29:15.265Z,34.05
2022-08-10T10:31:31.350Z,34.53
2022-08-10T10:34:25.495Z,33.76
2022-08-10T10:36:53.775Z,35.04
2022-08-10T10:39:24.551Z,33.73
2022-08-10T10:42:23.258Z,33.01
2022-08-10T10:45:14.621Z,34.02
2022-08-10T10:47:46.996Z,33.36
2022-08-10T10:50:18.108Z,32.82
2022-08-10T10:53:09.926Z,32.74
2022-08-10T10:56:15.223Z,31.99
2022-08-10T10:58:58.894Z,31.19
2022-08-10T11:02:07.360Z,31.85
2022-08-10T11:04:52.896Z,30.95
2022-08-10T11:07:33.731Z,32.30
2022-08-10T11:10:31.927Z,32.49
2022-08-10T11:14:22.849Z,31.65
2022-08-10T11:16:00.415Z,31.88
2022-08-10T11:18:48.221Z,32.33
2022-08-10T11:21:38.810Z,31.85
2022-08-10T11:24:47.111Z,29.88
2022-08-10T11:27:36.038Z,31.88
2022-08-10T11:30:11.486Z,31.09
2022-08-10T11:33:15.386Z,30.96
2022-08-10T11:36:08.859Z,30.05
2022-08-10T11:39:17.924Z,30.29
2022-08-10T11:42:07.740Z,31.15
2022-08-10T11:44:37.477Z,29.79
2022-08-10T11:47:24.988Z,30.61
2022-08-10T11:50:01.821Z,30.24
2022-08-10T11:52:42.539Z,30.25
2022-08-10T11:55:22.608Z,30.44
2022-08-10T11:57:55.560Z,29.58
2022-08-10T12:00:32.479Z,30.71
2022-08-10T12:03:03.500Z,29.59
2022-08-10T12:05:52.074Z,28.52
2022-08-10T12:10:05.065Z,29.08
2022-08-10T12:11:23.706Z,28.83
2022-08-10T12:14:22.256Z,28.63
2022-08-10T12:16:52.724Z,28.71
2022-08-10T12:19:28.327Z,28.70
2022-08-10T12:22:06.201Z,29.38
2022-08-10T12:24:51.539Z,29.60
2022-08-10T12:27:44.986Z,28.57
2022-08-10T12:30:17.145Z,28.59
2022-08-10T12:32:54.696Z,28.80
2022-08-10T12:35:27.973Z,27.67
2022-08-10T12:38:22.264Z,28.40
2022-08-10T12:40:52.378Z,27.73
2022-08-10T12:44:04.621Z,28.07
2022-08-10T12:46:41.501Z,27.41
2022-08-10T12:49:19.056Z,27.51
2022-08-10T12:51:52.697Z,27.31
2022-08-10T12:54:32.462Z,27.42
2022-08-10T12:57:17.836Z,27.73
2022-08-10T12:59:50.337Z,27.30
2022-08-10T13:02:24.422Z,27.48
2022-08-10T13:04:53.366Z,27.70
2022-08-10T13:08:24.551Z,26.83
2022-08-10T13:10:16.303Z,27.11
2022-08-10T13:12:56.762Z,27.43
2022-08-10T13:15:48.510Z,27.46
2022-08-10T13:18:25.636Z,27.01
2022-08-10T13:21:01.023Z,27.04
2022-08-10T13:23:29.955Z,28.12
2022-08-10T13:25:59.280Z,29.06
2022-08-10T13:28:40.015Z,28.92
2022-08-10T13:31:16.695Z,28.37
2022-08-10T13:34:03.614Z,28.71
2022-08-10T13:36:41.587Z,27.28
2022-08-10T13:39:09.041Z,27.31
2022-08-10T13:41:43.923Z,27.67
2022-08-10T13:44:14.766Z,28.45
2022-08-10T13:46:49.931Z,28.57
2022-08-10T13:49:18.881Z,28.01
2022-08-10T13:51:53.641Z,28.14
2022-08-10T13:54:37.233Z,28.00
2022-08-10T13:57:05.597Z,28.61
2022-08-10T14:00:32.950Z,28.57
2022-08-10T14:02:28.600Z,28.32
2022-08-10T14:05:00.213Z,29.07
2022-08-10T14:07:27.811Z,27.95
2022-08-10T14:10:00.826Z,27.58
2022-08-10T14:12:31.884Z,28.90
2022-08-10T14:15:03.026Z,29.65
2022-08-10T14:17:30.005Z,28.19
2022-08-10T14:19:59.151Z,28.98
2022-08-10T14:22:33.586Z,30.49
2022-08-10T14:25:13.034Z,29.86
2022-08-10T14:28:03.440Z,29.73
2022-08-10T14:30:31.583Z,30.08
2022-08-10T14:33:04.938Z,29.96
2022-08-10T14:36:19.807Z,29.06
2022-08-10T14:38:30.145Z,30.17
2022-08-10T14:41:00.141Z,29.60
2022-08-10T14:43:32.809Z,29.56
2022-08-10T14:46:11.156Z,29.99
2022-08-10T14:48:46.502Z,29.81
2022-08-10T14:51:17.695Z,29.25
2022-08-10T14:53:53.657Z,29.03
2022-08-10T14:56:30.436Z,29.93
2022-08-10T14:59:06.928Z,29.60
2022-08-10T15:02:00.343Z,30.26
2022-08-10T15:04:28.571Z,29.63
2022-08-10T15:07:00.954Z,30.66
2022-08-10T15:10:01.652Z,29.75
2022-08-10T15:12:34.208Z,30.04
2022-08-10T15:15:03.305Z,30.22
2022-08-10T15:17:34.781Z,30.80
2022-08-10T15:20:13.680Z,30.17
2022-08-10T15:22:46.824Z,30.12
2022-08-10T15:25:19.391Z,30.41
2022-08-10T15:27:56.493Z,30.44
2022-08-10T15:30:30.500Z,30.86
2022-08-10T15:33:21.503Z,30.50
2022-08-10T15:36:28.002Z,30.83
2022-08-10T15:40:06.558Z,30.61
2022-08-10T15:42:02.521Z,29.92
2022-08-10T15:44:43.471Z,30.50
2022-08-10T15:47:19.810Z,30.92
2022-08-10T15:50:07.069Z,30.14
2022-08-10T15:53:00.403Z,31.10
2022-08-10T15:55:44.177Z,30.75
2022-08-10T15:58:39.329Z,31.49
2022-08-10T16:02:14.007Z,31.06
2022-08-10T16:04:09.616Z,30.77
2022-08-10T16:06:51.342Z,31.29
2022-08-10T16:10:10.965Z,30.78
2022-08-10T16:12:40.962Z,31.18
2022-08-10T16:15:23.880Z,31.07
2022-08-10T16:18:13.004Z,30.62
2022-08-10T16:20:54.712Z,30.55
2022-08-10T16:23:45.306Z,31.38
2022-08-10T16:26:39.303Z,31.90
2022-08-10T16:29:12.293Z,31.18
2022-08-10T16:31:49.242Z,31.28
2022-08-10T16:34:17.025Z,31.10
2022-08-10T16:36:49.738Z,30.56
2022-08-10T16:39:58.807Z,31.50
2022-08-10T16:42:34.022Z,30.83
2022-08-10T16:45:20.535Z,30.84
2022-08-10T16:47:49.233Z,31.45
2022-08-10T16:50:21.027Z,31.08
2022-08-10T16:52:50.639Z,31.16
2022-08-10T16:55:27.062Z,31.17
2022-08-10T16:58:12.688Z,31.40
2022-08-10T17:00:42.532Z,31.00
2022-08-10T17:03:22.260Z,31.08
2022-08-10T17:06:07.386Z,31.44
2022-08-10T17:08:48.601Z,31.39
2022-08-10T17:11:17.287Z,31.69
2022-08-10T17:13:43.976Z,31.77
2022-08-10T17:16:13.202Z,31.50
2022-08-10T17:18:46.911Z,32.06
2022-08-10T17:21:22.762Z,31.97
2022-08-10T17:23:52.751Z,31.65
2022-08-10T17:26:37.224Z,31.80
2022-08-10T17:29:59.010Z,32.16
2022-08-10T17:32:30.830Z,32.35
2022-08-10T17:35:01.052Z,32.20
2022-08-10T17:37:42.888Z,32.64
2022-08-10T17:40:15.797Z,32.28
2022-08-10T17:42:45.681Z,32.84
2022-08-10T17:45:48.753Z,32.61
2022-08-10T17:48:11.254Z,32.94
2022-08-10T17:50:40.457Z,32.91
2022-08-10T17:53:15.064Z,32.79
2022-08-10T17:55:46.190Z,32.92
2022-08-10T17:58:15.234Z,32.98
2022-08-10T18:00:43.803Z,33.08
2022-08-10T18:03:25.846Z,32.79
2022-08-10T18:05:59.790Z,33.41
2022-08-10T18:08:29.604Z,33.96
2022-08-10T18:10:58.398Z,33.48
2022-08-10T18:13:56.192Z,33.93
2022-08-10T18:16:29.939Z,33.69
2022-08-10T18:19:03.494Z,34.24
2022-08-10T18:21:34.542Z,33.93
2022-08-10T18:24:16.273Z,34.51
2022-08-10T18:26:45.616Z,34.14
2022-08-10T18:29:20.145Z,34.77
2022-08-10T18:31:48.208Z,35.06
2022-08-10T18:34:19.620Z,35.46
2022-08-10T18:36:47.740Z,35.16
2022-08-10T18:39:20.144Z,35.45
2022-08-10T18:42:00.531Z,35.23
2022-08-10T18:44:36.766Z,35.29
2022-08-10T18:47:11.327Z,35.73
2022-08-10T18:49:40.517Z,35.65
2022-08-10T18:52:10.189Z,36.17
2022-08-10T18:54:49.873Z,36.77
2022-08-10T18:57:45.991Z,36.29
2022-08-10T19:00:15.401Z,36.14
2022-08-10T19:03:06.170Z,36.91
2022-08-10T19:05:54.146Z,37.21
2022-08-10T19:09:09.721Z,37.27
2022-08-10T19:11:58.471Z,36.97
2022-08-10T19:14:40.981Z,37.45
2022-08-10T19:17:16.289Z,37.64
2022-08-10T19:19:55.693Z,38.20
2022-08-10T19:22:34.327Z,38.41
2022-08-10T19:26:41.181Z,38.36
2022-08-10T19:28:49.186Z,38.97
2022-08-10T19:31:48.111Z,39.47
2022-08-10T19:34:48.086Z,38.86
2022-08-10T19:37:42.323Z,39.70
2022-08-10T19:40:44.487Z,39.51
2022-08-10T19:44:00.446Z,40.44
2022-08-10T19:46:32.931Z,39.94
2022-08-10T19:49:04.985Z,40.63
2022-08-10T19:51:48.114Z,41.25
2022-08-10T19:54:33.877Z,40.82
2022-08-10T19:57:33.580Z,41.54
2022-08-10T20:00:25.586Z,41.56
2022-08-10T20:03:12.242Z,41.76
2022-08-10T20:06:17.936Z,41.44
2022-08-10T20:08:59.122Z,41.44
2022-08-10T20:11:47.434Z,42.07
2022-08-10T20:14:33.781Z,42.93
2022-08-10T20:17:19.719Z,42.80
2022-08-10T20:19:55.057Z,41.97
2022-08-10T20:22:32.091Z,42.48
2022-08-10T20:25:16.849Z,42.10
2022-08-10T20:28:09.207Z,42.57
2022-08-10T20:30:41.639Z,42.98
2022-08-10T20:33:12.270Z,42.85
2022-08-10T20:35:53.607Z,43.10
2022-08-10T20:38:33.247Z,43.29
2022-08-10T20:41:08.624Z,43.41
2022-08-10T20:43:43.958Z,43.12
2022-08-10T20:46:27.843Z,43.23
2022-08-10T20:49:04.341Z,43.50
2022-08-10T20:51:58.448Z,43.08
2022-08-10T20:54:37.009Z,43.49
2022-08-10T20:57:54.709Z,43.85
2022-08-10T21:00:12.939Z,43.29
2022-08-10T21:02:54.951Z,44.09
2022-08-10T21:05:35.144Z,44.50
2022-08-10T21:08:40.998Z,44.49
2022-08-10T21:11:37.023Z,44.06
2022-08-10T21:14:32.162Z,44.23
2022-08-10T21:17:23.392Z,45.24
2022-08-10T21:20:35.673Z,44.68
2022-08-10T21:23:08.656Z,45.09
2022-08-10T21:25:59.093Z,45.07
2022-08-10T21:29:04.919Z,45.83
2022-08-10T21:31:35.234Z,45.77
2022-08-10T21:34:19.601Z,45.66
2022-08-10T21:37:17.541Z,46.19
2022-08-10T21:40:00.225Z,45.93
2022-08-10T21:43:13.774Z,46.92
2022-08-10T21:46:04.837Z,47.60
2022-08-10T21:49:42.210Z,48.46
2022-08-10T21:53:04.130Z,49.40
2022-08-10T21:56:40.733Z,50.04
2022-08-10T21:59:56.071Z,50.30
2022-08-10T22:02:50.015Z,50.42
2022-08-10T22:05:42.323Z,50.46
2022-08-10T22:08:37.009Z,51.25
2022-08-10T22:11:27.081Z,51.13
2022-08-10T22:14:17.412Z,51.41
2022-08-10T22:17:59.661Z,51.80
2022-08-10T22:23:37.506Z,53.16
2022-08-10T22:27:00.741Z,53.22
2022-08-10T22:30:01.611Z,54.19
2022-08-10T22:33:34.512Z,55.20
2022-08-10T22:36:45.956Z,56.04
2022-08-10T22:40:10.905Z,56.76
2022-08-10T22:43:10.428Z,57.54
2022-08-10T22:46:03.540Z,57.76
2022-08-10T22:48:51.841Z,57.14
2022-08-10T22:51:22.626Z,57.55
2022-08-10T22:54:30.413Z,58.02
2022-08-10T22:57:18.812Z,57.88
2022-08-10T22:59:45.456Z,57.95
2022-08-10T23:02:21.874Z,59.21
2022-08-10T23:04:57.300Z,58.70
2022-08-10T23:07:32.239Z,58.65
2022-08-10T23:10:03.871Z,59.11
2022-08-10T23:12:38.034Z,59.45
2022-08-10T23:15:35.712Z,59.54
2022-08-10T23:18:25.421Z,60.24
2022-08-10T23:20:54.366Z,59.63
2022-08-10T23:23:24.416Z,59.77
2022-08-10T23:25:57.039Z,60.94
2022-08-10T23:28:38.334Z,60.47
2022-08-10T23:31:12.170Z,60.47
2022-08-10T23:33:39.598Z,61.59
2022-08-10T23:36:34.302Z,62.24
2022-08-10T23:39:26.687Z,62.49
2022-08-10T23:41:53.033Z,63.14
2022-08-10T23:44:22.436Z,63.06
2022-08-10T23:46:49.714Z,63.95
2022-08-10T23:49:16.799Z,64.98
2022-08-10T23:51:56.484Z,65.78
2022-08-10T23:54:24.780Z,66.22
2022-08-10T23:56:56.586Z,66.05
2022-08-10T23:59:32.704Z,65.34
